Time;durP1;ratioP1;P1;durP2;ratioP2;P2;SDS_P1;SDS_P2;PMS_P1;PMS_P2;Temp;Humidity;BMP_temperature;BMP_pressure;BME280_temperature;BME280_humidity;BME280_pressure;Samples;Min_cycle;Max_cycle;Signal;HPM_P1;HPM_P2
2022/11/25 00:01:06;;;;;;;10.10;4.87;;;;;;;;;;5041027;28;20222;-26
2022/11/25 00:03:33;;;;;;;5.70;3.80;;;;;;;;;;5044932;28;20209;-26
2022/11/25 00:06:09;;;;;;;6.87;4.20;;;;;;;;;;5043996;28;20205;-25
2022/11/25 00:08:36;;;;;;;5.53;3.43;;;;;;;;;;5043743;28;20202;-27
2022/11/25 00:11:03;;;;;;;5.63;3.77;;;;;;;;;;5044183;28;20222;-26
2022/11/25 00:13:31;;;;;;;4.70;3.37;;;;;;;;;;5050341;28;20205;-27
2022/11/25 00:16:01;;;;;;;7.83;4.00;;;;;;;;;;5040140;28;20228;-27
2022/11/25 00:18:28;;;;;;;6.17;4.00;;;;;;;;;;5050432;28;20224;-25
2022/11/25 00:20:55;;;;;;;5.63;4.50;;;;;;;;;;5051528;28;20222;-27
2022/11/25 00:23:23;;;;;;;4.40;3.97;;;;;;;;;;5048553;28;20205;-25
2022/11/25 00:25:51;;;;;;;4.50;4.07;;;;;;;;;;5043173;28;20301;-26
2022/11/25 00:28:18;;;;;;;6.43;4.03;;;;;;;;;;5047370;28;20202;-27
2022/11/25 00:30:45;;;;;;;5.63;4.23;;;;;;;;;;5042842;28;20226;-27
2022/11/25 00:33:12;;;;;;;7.63;4.10;;;;;;;;;;5050021;28;20297;-27
2022/11/25 00:35:39;;;;;;;5.33;4.70;;;;;;;;;;5052703;28;20198;-26
2022/11/25 00:38:06;;;;;;;6.17;4.00;;;;;;;;;;5041892;28;20329;-27
2022/11/25 00:40:35;;;;;;;6.43;3.87;;;;;;;;;;5042226;28;20227;-25
2022/11/25 00:45:47;;;;;;;5.37;4.13;;;;;;;;;;5039682;28;20279;-27
2022/11/25 00:48:14;;;;;;;5.53;3.93;;;;;;;;;;5041958;28;20202;-28
2022/11/25 00:50:43;;;;;;;8.47;4.00;;;;;;;;;;5030194;28;20226;-26
2022/11/25 00:53:10;;;;;;;5.20;3.50;;;;;;;;;;5033073;28;20198;-29
2022/11/25 00:58:20;;;;;;;4.77;3.50;;;;;;;;;;5039650;28;20222;-27
2022/11/25 01:00:47;;;;;;;4.13;3.37;;;;;;;;;;5045139;28;20226;-25
2022/11/25 01:03:14;;;;;;;6.90;4.13;;;;;;;;;;5046037;28;20205;-26
2022/11/25 01:05:41;;;;;;;5.80;3.90;;;;;;;;;;5030325;28;20207;-25
2022/11/25 01:08:08;;;;;;;4.07;3.67;;;;;;;;;;5036086;28;20207;-27
2022/11/25 01:10:36;;;;;;;7.53;3.77;;;;;;;;;;5046448;28;20226;-27
2022/11/25 01:13:04;;;;;;;7.30;3.77;;;;;;;;;;5048133;28;20300;-25
2022/11/25 01:15:31;;;;;;;7.10;3.93;;;;;;;;;;5046572;28;20220;-28
2022/11/25 01:17:58;;;;;;;5.27;3.40;;;;;;;;;;5050492;28;20210;-25
2022/11/25 01:20:25;;;;;;;6.80;4.03;;;;;;;;;;5049734;28;20572;-26
2022/11/25 01:22:53;;;;;;;7.30;3.97;;;;;;;;;;5047176;28;20205;-25
2022/11/25 01:25:20;;;;;;;5.40;4.13;;;;;;;;;;5037104;28;20207;-24
2022/11/25 01:27:47;;;;;;;7.80;4.20;;;;;;;;;;5045399;28;20198;-25
2022/11/25 01:30:16;;;;;;;6.00;4.13;;;;;;;;;;5038494;28;20526;-27
2022/11/25 01:32:43;;;;;;;6.90;4.43;;;;;;;;;;5041182;28;20253;-24
2022/11/25 01:35:11;;;;;;;4.43;3.90;;;;;;;;;;5045144;28;20193;-26
2022/11/25 01:37:38;;;;;;;6.67;3.97;;;;;;;;;;5039354;28;20660;-26
2022/11/25 01:40:06;;;;;;;6.07;4.20;;;;;;;;;;5039536;28;20228;-28
2022/11/25 01:42:33;;;;;;;5.33;3.63;;;;;;;;;;5048323;28;20202;-27
2022/11/25 01:45:19;;;;;;;7.43;3.70;;;;;;;;;;5041890;28;20242;-29
2022/11/25 01:47:47;;;;;;;7.93;4.10;;;;;;;;;;5044437;28;20216;-27
2022/11/25 01:50:15;;;;;;;7.50;3.37;;;;;;;;;;5049405;28;20228;-25
2022/11/25 01:52:44;;;;;;;6.37;4.07;;;;;;;;;;5045434;28;20487;-28
2022/11/25 01:55:15;;;;;;;5.53;3.50;;;;;;;;;;5042522;28;20229;-27
2022/11/25 01:57:44;;;;;;;4.00;3.40;;;;;;;;;;5048585;28;20260;-26
2022/11/25 02:00:12;;;;;;;4.33;3.40;;;;;;;;;;5039221;28;20250;-28
2022/11/25 02:02:39;;;;;;;5.53;3.60;;;;;;;;;;5044657;28;20198;-25
2022/11/25 02:05:10;;;;;;;7.43;3.57;;;;;;;;;;5052128;28;20202;-24
2022/11/25 02:07:38;;;;;;;6.47;3.50;;;;;;;;;;5048793;28;20202;-25
2022/11/25 02:10:06;;;;;;;5.93;3.80;;;;;;;;;;5035313;28;20203;-27
2022/11/25 02:12:34;;;;;;;5.10;3.23;;;;;;;;;;5047025;28;20264;-26
2022/11/25 02:15:01;;;;;;;5.43;3.60;;;;;;;;;;5042792;28;20202;-26
2022/11/25 02:17:29;;;;;;;6.23;3.67;;;;;;;;;;5051577;28;20206;-29
2022/11/25 02:20:00;;;;;;;7.50;3.73;;;;;;;;;;5052642;28;20217;-27
2022/11/25 02:22:39;;;;;;;6.10;3.53;;;;;;;;;;5047992;28;20198;-25
2022/11/25 02:25:12;;;;;;;4.33;3.20;;;;;;;;;;5046706;28;20209;-25
2022/11/25 02:27:39;;;;;;;6.03;3.30;;;;;;;;;;5052320;28;20253;-27
2022/11/25 02:30:07;;;;;;;4.57;3.93;;;;;;;;;;5045729;28;20229;-27
2022/11/25 02:32:34;;;;;;;4.43;3.60;;;;;;;;;;5051948;28;20286;-27
2022/11/25 02:35:01;;;;;;;3.97;3.50;;;;;;;;;;5052174;28;20259;-25
2022/11/25 02:37:29;;;;;;;5.67;3.90;;;;;;;;;;5045891;28;20206;-28
2022/11/25 02:39:56;;;;;;;5.93;4.00;;;;;;;;;;5041851;28;20241;-25
2022/11/25 02:42:24;;;;;;;5.03;3.87;;;;;;;;;;5050432;28;20270;-27
2022/11/25 02:44:52;;;;;;;5.23;3.87;;;;;;;;;;5047022;28;20193;-23
2022/11/25 02:47:19;;;;;;;6.10;3.90;;;;;;;;;;5047789;28;20210;-26
2022/11/25 02:49:46;;;;;;;5.03;3.47;;;;;;;;;;5047418;28;20202;-28
2022/11/25 02:52:13;;;;;;;8.20;4.00;;;;;;;;;;5047461;28;20235;-27
2022/11/25 02:54:40;;;;;;;11.97;4.20;;;;;;;;;;5050251;28;20247;-26
2022/11/25 02:57:07;;;;;;;5.83;3.40;;;;;;;;;;5047191;28;20204;-25
2022/11/25 02:59:36;;;;;;;5.83;3.70;;;;;;;;;;5047458;28;20230;-27
2022/11/25 03:02:03;;;;;;;5.40;4.07;;;;;;;;;;5051194;28;20233;-27
2022/11/25 03:04:30;;;;;;;6.67;3.33;;;;;;;;;;5051340;28;20285;-27
2022/11/25 03:06:57;;;;;;;4.33;3.40;;;;;;;;;;5050366;28;20198;-26
2022/11/25 03:09:24;;;;;;;4.57;3.50;;;;;;;;;;5040161;28;20221;-27
2022/11/25 03:14:37;;;;;;;6.60;3.27;;;;;;;;;;5044830;28;20225;-30
2022/11/25 03:17:05;;;;;;;5.73;3.80;;;;;;;;;;5037327;28;20207;-26
2022/11/25 03:19:32;;;;;;;4.97;3.67;;;;;;;;;;5048892;28;20221;-26
2022/11/25 03:21:59;;;;;;;4.17;3.67;;;;;;;;;;5046464;28;20226;-25
2022/11/25 03:24:26;;;;;;;7.03;3.60;;;;;;;;;;5038418;28;20198;-25
2022/11/25 03:26:53;;;;;;;5.83;3.30;;;;;;;;;;5036898;28;20212;-25
2022/11/25 03:29:20;;;;;;;5.30;3.33;;;;;;;;;;5043979;28;20212;-26
2022/11/25 03:31:49;;;;;;;5.03;3.13;;;;;;;;;;5040871;28;20218;-28
2022/11/25 03:34:16;;;;;;;5.17;4.13;;;;;;;;;;5043259;28;20206;-24
2022/11/25 03:36:43;;;;;;;5.57;3.90;;;;;;;;;;5042779;28;20208;-27
2022/11/25 03:39:10;;;;;;;6.13;3.63;;;;;;;;;;5044681;28;20308;-26
2022/11/25 03:41:37;;;;;;;6.93;3.67;;;;;;;;;;5049892;28;20218;-26
2022/11/25 03:44:04;;;;;;;9.13;4.20;;;;;;;;;;5046076;28;20202;-28
2022/11/25 03:46:31;;;;;;;5.90;3.97;;;;;;;;;;5048362;28;20208;-27
2022/11/25 03:49:00;;;;;;;4.93;3.23;;;;;;;;;;5043953;28;20202;-27
2022/11/25 03:51:27;;;;;;;5.03;3.47;;;;;;;;;;5042918;28;20240;-28
2022/11/25 03:53:54;;;;;;;5.93;3.63;;;;;;;;;;5034465;28;20206;-27
2022/11/25 03:56:21;;;;;;;6.10;3.33;;;;;;;;;;5047161;28;20206;-29
2022/11/25 03:58:48;;;;;;;6.43;3.57;;;;;;;;;;5042395;28;20271;-26
2022/11/25 04:01:15;;;;;;;9.73;4.83;;;;;;;;;;5040024;28;20264;-25
2022/11/25 04:03:43;;;;;;;6.53;4.17;;;;;;;;;;5042289;28;20198;-28
2022/11/25 04:06:11;;;;;;;4.83;3.70;;;;;;;;;;5047533;28;20214;-24
2022/11/25 04:08:38;;;;;;;4.20;3.47;;;;;;;;;;5043352;28;20210;-26
2022/11/25 04:11:05;;;;;;;6.00;3.97;;;;;;;;;;5039125;28;20240;-26
2022/11/25 04:13:32;;;;;;;5.50;3.83;;;;;;;;;;5049648;28;20233;-26
2022/11/25 04:15:59;;;;;;;5.87;3.73;;;;;;;;;;5043983;28;20605;-28
2022/11/25 04:18:26;;;;;;;4.43;3.73;;;;;;;;;;5048138;28;20201;-26
2022/11/25 04:20:53;;;;;;;3.90;3.23;;;;;;;;;;5050790;28;20222;-27
2022/11/25 04:23:21;;;;;;;7.73;4.10;;;;;;;;;;5042478;28;20352;-26
2022/11/25 04:25:50;;;;;;;5.17;3.60;;;;;;;;;;5035837;28;20204;-25
2022/11/25 04:28:17;;;;;;;5.57;3.97;;;;;;;;;;5042574;28;20198;-26
2022/11/25 04:30:44;;;;;;;5.60;3.77;;;;;;;;;;5037793;28;20232;-26
2022/11/25 04:33:11;;;;;;;6.47;3.93;;;;;;;;;;5040434;28;20201;-25
2022/11/25 04:35:38;;;;;;;7.07;4.00;;;;;;;;;;5050248;28;20201;-30
2022/11/25 04:38:05;;;;;;;5.33;3.93;;;;;;;;;;5040055;28;20212;-25
2022/11/25 04:40:34;;;;;;;5.07;3.50;;;;;;;;;;5045891;28;20235;-27
2022/11/25 04:43:01;;;;;;;9.30;3.93;;;;;;;;;;5050260;28;20208;-26
2022/11/25 04:45:28;;;;;;;4.40;3.73;;;;;;;;;;5045182;28;20208;-25
2022/11/25 04:47:55;;;;;;;6.13;3.97;;;;;;;;;;5044257;28;20396;-27
2022/11/25 04:50:23;;;;;;;4.90;3.60;;;;;;;;;;5049123;28;20683;-26
2022/11/25 04:52:50;;;;;;;5.90;4.40;;;;;;;;;;5044192;28;20208;-25
2022/11/25 04:55:18;;;;;;;4.53;3.70;;;;;;;;;;5049742;28;20198;-28
2022/11/25 04:57:46;;;;;;;5.87;4.17;;;;;;;;;;5048951;28;20289;-27
2022/11/25 05:00:13;;;;;;;5.20;3.93;;;;;;;;;;5038717;28;20229;-28
2022/11/25 05:02:40;;;;;;;5.87;4.00;;;;;;;;;;5047926;28;20260;-26
2022/11/25 05:05:07;;;;;;;8.20;3.67;;;;;;;;;;5049452;28;20202;-26
2022/11/25 05:07:35;;;;;;;4.80;2.97;;;;;;;;;;5043245;28;20206;-28
2022/11/25 05:10:02;;;;;;;3.83;3.40;;;;;;;;;;5043001;28;20194;-26
2022/11/25 05:12:29;;;;;;;4.03;3.60;;;;;;;;;;5050688;28;20210;-28
2022/11/25 05:14:58;;;;;;;6.20;3.60;;;;;;;;;;5044301;28;20247;-25
2022/11/25 05:17:26;;;;;;;5.90;3.40;;;;;;;;;;5048459;28;20208;-27
2022/11/25 05:19:53;;;;;;;6.10;3.73;;;;;;;;;;5045358;28;20215;-24
2022/11/25 05:22:22;;;;;;;4.87;3.83;;;;;;;;;;5135641;22;20237;-28
2022/11/25 05:24:49;;;;;;;4.60;3.13;;;;;;;;;;5044280;28;20206;-27
2022/11/25 05:27:16;;;;;;;4.50;3.33;;;;;;;;;;5049460;28;20197;-28
2022/11/25 05:29:44;;;;;;;8.20;3.67;;;;;;;;;;5049577;28;20202;-28
2022/11/25 05:32:12;;;;;;;5.47;3.17;;;;;;;;;;5051808;28;20225;-26
2022/11/25 05:34:40;;;;;;;5.20;3.27;;;;;;;;;;5052759;28;20212;-29
2022/11/25 05:37:07;;;;;;;4.90;3.30;;;;;;;;;;5051436;28;20296;-29
2022/11/25 05:39:34;;;;;;;5.93;3.97;;;;;;;;;;5041454;28;20569;-31
2022/11/25 05:42:06;;;;;;;4.37;3.47;;;;;;;;;;5056628;28;20224;-29
2022/11/25 05:44:33;;;;;;;6.67;3.70;;;;;;;;;;5053329;28;20205;-30
2022/11/25 05:47:00;;;;;;;4.70;3.40;;;;;;;;;;5051798;28;20198;-25
2022/11/25 05:49:28;;;;;;;4.70;3.30;;;;;;;;;;5054559;28;20300;-23
2022/11/25 05:51:56;;;;;;;7.03;3.33;;;;;;;;;;5053773;28;20221;-29
2022/11/25 05:54:23;;;;;;;5.10;3.23;;;;;;;;;;5048168;28;20297;-27
2022/11/25 05:56:50;;;;;;;4.50;3.07;;;;;;;;;;5055681;28;20632;-27
2022/11/25 05:59:17;;;;;;;5.50;3.27;;;;;;;;;;5045206;28;20201;-24
2022/11/25 06:01:44;;;;;;;5.70;3.17;;;;;;;;;;5039982;28;20224;-27
2022/11/25 06:04:12;;;;;;;5.27;3.27;;;;;;;;;;5055884;28;20202;-30
2022/11/25 06:06:40;;;;;;;5.20;3.90;;;;;;;;;;5053439;28;20997;-26
2022/11/25 06:09:07;;;;;;;5.57;3.50;;;;;;;;;;5044543;28;20210;-28
2022/11/25 06:11:34;;;;;;;3.83;3.20;;;;;;;;;;5043316;28;20224;-27
2022/11/25 06:14:01;;;;;;;5.07;3.60;;;;;;;;;;5052220;28;20194;-27
2022/11/25 06:16:28;;;;;;;5.80;3.70;;;;;;;;;;5052877;28;20221;-28
2022/11/25 06:18:57;;;;;;;4.57;3.00;;;;;;;;;;5055069;28;20644;-26
2022/11/25 06:21:24;;;;;;;4.70;3.20;;;;;;;;;;5055847;28;20229;-25
2022/11/25 06:23:53;;;;;;;4.97;3.53;;;;;;;;;;5052336;28;20222;-26
2022/11/25 06:26:21;;;;;;;6.00;3.40;;;;;;;;;;5046285;28;20217;-28
2022/11/25 06:28:50;;;;;;;3.10;2.80;;;;;;;;;;5053426;28;20205;-26
2022/11/25 06:31:19;;;;;;;7.57;3.70;;;;;;;;;;5046927;28;20222;-26
2022/11/25 06:33:47;;;;;;;5.13;3.47;;;;;;;;;;5047195;28;20676;-27
2022/11/25 06:36:16;;;;;;;9.50;4.00;;;;;;;;;;5055791;28;20224;-25
2022/11/25 06:38:43;;;;;;;5.27;3.47;;;;;;;;;;5049420;28;20255;-28
2022/11/25 06:41:11;;;;;;;4.93;3.33;;;;;;;;;;5050668;28;20229;-26
2022/11/25 06:43:39;;;;;;;3.60;3.00;;;;;;;;;;5055432;28;20202;-28
2022/11/25 06:46:07;;;;;;;4.90;3.63;;;;;;;;;;5049320;28;20197;-27
2022/11/25 06:48:34;;;;;;;4.70;3.37;;;;;;;;;;5054881;28;20232;-26
2022/11/25 06:51:02;;;;;;;7.00;3.87;;;;;;;;;;5055582;28;20221;-30
2022/11/25 06:53:29;;;;;;;3.97;3.20;;;;;;;;;;5042708;28;20273;-27
2022/11/25 06:56:04;;;;;;;4.40;3.13;;;;;;;;;;5038674;28;20209;-26
2022/11/25 06:58:32;;;;;;;9.07;3.50;;;;;;;;;;5050421;28;20201;-26
2022/11/25 07:01:03;;;;;;;9.50;5.03;;;;;;;;;;5046853;28;20229;-25
2022/11/25 07:03:41;;;;;;;9.97;5.67;;;;;;;;;;5052082;28;20198;-27
2022/11/25 07:06:08;;;;;;;8.93;5.17;;;;;;;;;;5052148;28;20254;-30
2022/11/25 07:08:35;;;;;;;12.53;6.10;;;;;;;;;;5037584;28;20553;-27
2022/11/25 07:11:03;;;;;;;10.83;5.87;;;;;;;;;;5039893;28;20761;-24
2022/11/25 07:13:30;;;;;;;8.97;5.70;;;;;;;;;;5050951;28;20204;-27
2022/11/25 07:16:00;;;;;;;7.67;4.60;;;;;;;;;;5041473;28;20204;-25
2022/11/25 07:18:29;;;;;;;9.13;5.07;;;;;;;;;;5052542;28;20198;-27
2022/11/25 07:20:56;;;;;;;6.20;4.47;;;;;;;;;;5052273;28;20222;-25
2022/11/25 07:23:27;;;;;;;7.07;5.10;;;;;;;;;;5045992;28;20197;-27
2022/11/25 07:25:54;;;;;;;6.33;4.47;;;;;;;;;;5051300;28;20202;-28
2022/11/25 07:28:29;;;;;;;9.20;6.77;;;;;;;;;;5052185;28;20225;-29
2022/11/25 07:30:56;;;;;;;8.77;5.17;;;;;;;;;;5047061;28;20301;-26
2022/11/25 07:33:25;;;;;;;8.23;6.23;;;;;;;;;;5048940;28;20220;-29
2022/11/25 07:35:52;;;;;;;8.37;5.33;;;;;;;;;;5052283;28;20204;-28
2022/11/25 07:38:21;;;;;;;8.13;4.87;;;;;;;;;;5034572;28;20457;-26
2022/11/25 07:40:49;;;;;;;8.33;5.07;;;;;;;;;;5037404;28;20272;-25
2022/11/25 07:43:16;;;;;;;6.83;4.57;;;;;;;;;;5038448;28;20195;-26
2022/11/25 07:45:43;;;;;;;5.10;4.60;;;;;;;;;;5046967;28;20202;-25
2022/11/25 07:48:10;;;;;;;5.53;4.17;;;;;;;;;;5048779;28;20212;-25
2022/11/25 07:50:39;;;;;;;7.03;4.67;;;;;;;;;;5047772;28;20218;-29
2022/11/25 07:53:06;;;;;;;4.37;3.83;;;;;;;;;;5045505;28;20202;-26
2022/11/25 07:55:33;;;;;;;6.90;3.87;;;;;;;;;;5051271;28;20198;-24
2022/11/25 07:58:00;;;;;;;5.87;4.10;;;;;;;;;;5047519;28;20253;-26
2022/11/25 08:00:27;;;;;;;5.37;4.23;;;;;;;;;;5035843;28;20309;-27
2022/11/25 08:02:57;;;;;;;5.17;4.07;;;;;;;;;;5046314;28;20206;-26
2022/11/25 08:05:24;;;;;;;7.30;4.13;;;;;;;;;;5050819;28;20308;-26
2022/11/25 08:07:52;;;;;;;6.67;4.30;;;;;;;;;;5051989;28;20204;-26
2022/11/25 08:10:19;;;;;;;7.23;4.33;;;;;;;;;;5049170;28;20911;-22
2022/11/25 08:12:47;;;;;;;8.27;4.33;;;;;;;;;;5044262;28;20198;-27
2022/11/25 08:15:14;;;;;;;4.67;3.63;;;;;;;;;;5049345;28;20210;-26
2022/11/25 08:17:41;;;;;;;5.63;4.13;;;;;;;;;;5052838;28;20196;-27
2022/11/25 08:20:09;;;;;;;7.73;4.30;;;;;;;;;;5046411;28;20289;-30
2022/11/25 08:22:36;;;;;;;6.20;4.27;;;;;;;;;;5046809;28;20210;-28
2022/11/25 08:25:05;;;;;;;6.30;4.10;;;;;;;;;;5049408;28;20205;-30
2022/11/25 08:27:32;;;;;;;5.80;4.07;;;;;;;;;;5047756;28;20290;-28
2022/11/25 08:29:59;;;;;;;7.17;4.40;;;;;;;;;;5042723;28;20264;-26
2022/11/25 08:32:26;;;;;;;8.07;4.90;;;;;;;;;;5046900;28;20285;-29
2022/11/25 08:34:53;;;;;;;7.30;4.40;;;;;;;;;;5050307;28;20202;-28
2022/11/25 08:37:20;;;;;;;5.97;3.97;;;;;;;;;;5050994;28;20206;-30
2022/11/25 08:39:49;;;;;;;4.60;3.90;;;;;;;;;;5039512;28;20194;-27
2022/11/25 08:42:18;;;;;;;6.33;4.10;;;;;;;;;;5045513;28;20224;-28
2022/11/25 08:44:45;;;;;;;7.57;4.03;;;;;;;;;;5049965;28;20206;-28
2022/11/25 08:47:12;;;;;;;7.57;4.60;;;;;;;;;;5044012;28;20206;-26
2022/11/25 08:49:39;;;;;;;7.67;4.13;;;;;;;;;;5040203;28;20697;-27
2022/11/25 08:52:07;;;;;;;6.03;4.00;;;;;;;;;;5038206;28;20253;-27
2022/11/25 08:54:34;;;;;;;6.00;4.37;;;;;;;;;;5042992;28;20668;-28
2022/11/25 08:57:01;;;;;;;6.00;4.07;;;;;;;;;;5044849;28;20194;-24
2022/11/25 08:59:29;;;;;;;6.43;4.10;;;;;;;;;;5037305;28;20244;-27
2022/11/25 09:01:57;;;;;;;7.60;3.63;;;;;;;;;;5036606;28;20507;-28
2022/11/25 09:04:24;;;;;;;5.40;4.10;;;;;;;;;;5041547;28;20202;-26
2022/11/25 09:06:51;;;;;;;7.07;4.20;;;;;;;;;;5043509;28;20198;-27
2022/11/25 09:09:18;;;;;;;4.17;3.57;;;;;;;;;;5043236;28;20198;-30
2022/11/25 09:11:47;;;;;;;7.03;4.20;;;;;;;;;;5035309;28;20214;-28
2022/11/25 09:14:14;;;;;;;9.87;4.27;;;;;;;;;;5041986;28;20214;-25
2022/11/25 09:16:42;;;;;;;7.20;4.47;;;;;;;;;;5040230;28;20285;-30
2022/11/25 09:19:09;;;;;;;8.80;3.90;;;;;;;;;;5044793;28;20205;-23
2022/11/25 09:21:37;;;;;;;8.20;5.00;;;;;;;;;;5044044;28;20316;-28
2022/11/25 09:24:04;;;;;;;6.57;4.87;;;;;;;;;;5030274;28;20198;-26
2022/11/25 09:26:34;;;;;;;7.00;4.40;;;;;;;;;;5044724;28;20200;-28
2022/11/25 09:29:01;;;;;;;7.50;4.23;;;;;;;;;;5032721;28;20198;-23
2022/11/25 09:31:28;;;;;;;5.17;4.60;;;;;;;;;;5039932;28;20221;-26
2022/11/25 09:33:58;;;;;;;5.87;4.57;;;;;;;;;;5034293;28;20193;-27
2022/11/25 09:36:25;;;;;;;6.17;4.90;;;;;;;;;;5046507;28;20637;-28
2022/11/25 09:38:59;;;;;;;7.27;4.77;;;;;;;;;;5047412;28;20194;-23
2022/11/25 09:47:13;;;;;;;6.57;4.40;;;;;;;;;;5036429;28;20247;-30
2022/11/25 09:49:50;;;;;;;9.23;5.20;;;;;;;;;;5044700;28;20233;-27
2022/11/25 09:52:19;;;;;;;8.23;4.00;;;;;;;;;;5043160;28;20331;-24
2022/11/25 09:54:50;;;;;;;5.97;4.30;;;;;;;;;;5033296;28;20802;-27
2022/11/25 09:57:23;;;;;;;6.23;4.77;;;;;;;;;;5040719;28;20229;-27
2022/11/25 09:59:54;;;;;;;11.23;5.80;;;;;;;;;;5030674;28;20202;-25
2022/11/25 10:02:25;;;;;;;7.80;5.33;;;;;;;;;;5031636;28;20226;-29
2022/11/25 10:04:55;;;;;;;6.80;5.67;;;;;;;;;;5031878;28;20487;-29
2022/11/25 10:07:27;;;;;;;7.57;4.77;;;;;;;;;;5040368;28;20230;-27
2022/11/25 10:09:55;;;;;;;5.13;4.60;;;;;;;;;;5041748;28;20217;-23
2022/11/25 10:12:25;;;;;;;9.57;4.97;;;;;;;;;;5034428;28;20818;-26
2022/11/25 10:14:56;;;;;;;7.00;5.03;;;;;;;;;;5035261;28;20320;-24
2022/11/25 10:17:31;;;;;;;8.30;4.87;;;;;;;;;;5025405;28;20840;-29
2022/11/25 10:20:03;;;;;;;6.40;4.90;;;;;;;;;;5039243;28;20190;-28
2022/11/25 10:22:32;;;;;;;10.23;5.30;;;;;;;;;;5047753;28;20225;-28
2022/11/25 10:25:00;;;;;;;6.73;5.10;;;;;;;;;;5044569;28;20212;-26
2022/11/25 10:27:31;;;;;;;7.73;4.97;;;;;;;;;;5041259;28;20997;-28
2022/11/25 10:30:02;;;;;;;7.23;4.77;;;;;;;;;;5041484;28;20200;-27
2022/11/25 10:32:33;;;;;;;7.37;4.97;;;;;;;;;;5044842;28;20658;-28
2022/11/25 10:35:05;;;;;;;6.63;5.03;;;;;;;;;;5048855;28;20191;-25
2022/11/25 10:37:36;;;;;;;7.43;5.30;;;;;;;;;;5053707;28;20196;-26
2022/11/25 10:40:03;;;;;;;9.43;5.37;;;;;;;;;;5047629;28;20288;-26
2022/11/25 10:42:31;;;;;;;7.93;5.53;;;;;;;;;;5050736;28;21026;-26
2022/11/25 10:44:58;;;;;;;6.30;4.63;;;;;;;;;;5049957;28;20198;-24
2022/11/25 10:47:34;;;;;;;4.97;4.43;;;;;;;;;;5050847;28;20213;-25
2022/11/25 10:50:09;;;;;;;5.57;4.37;;;;;;;;;;5043938;28;20216;-27
2022/11/25 10:52:39;;;;;;;7.20;5.27;;;;;;;;;;5044839;28;20201;-27
2022/11/25 10:55:11;;;;;;;5.13;4.37;;;;;;;;;;5054741;28;20939;-28
2022/11/25 11:01:02;;;;;;;6.83;4.63;;;;;;;;;;5041932;28;20196;-26
2022/11/25 11:03:29;;;;;;;6.47;4.60;;;;;;;;;;5049724;28;20202;-25
2022/11/25 11:05:58;;;;;;;7.33;5.20;;;;;;;;;;5049037;28;20293;-25
2022/11/25 11:08:27;;;;;;;9.97;5.83;;;;;;;;;;5051956;28;20220;-26
2022/11/25 11:11:15;;;;;;;4.93;4.40;;;;;;;;;;5038784;28;20305;-29
2022/11/25 11:13:42;;;;;;;8.53;4.83;;;;;;;;;;5041956;28;20209;-26
2022/11/25 11:16:30;;;;;;;6.37;4.63;;;;;;;;;;5042964;28;20659;-29
2022/11/25 11:19:05;;;;;;;11.03;5.50;;;;;;;;;;5046684;28;20726;-28
2022/11/25 11:21:35;;;;;;;8.40;5.00;;;;;;;;;;5053828;28;20230;-29
2022/11/25 11:24:03;;;;;;;7.37;5.20;;;;;;;;;;5047797;28;20209;-28
2022/11/25 11:26:31;;;;;;;6.80;4.63;;;;;;;;;;5043341;28;20648;-24
2022/11/25 11:28:59;;;;;;;6.97;4.87;;;;;;;;;;5051142;28;20200;-28
2022/11/25 11:31:29;;;;;;;8.27;5.80;;;;;;;;;;5042959;28;20223;-29
2022/11/25 11:34:01;;;;;;;12.97;7.07;;;;;;;;;;5055746;28;20186;-29
2022/11/25 11:36:40;;;;;;;9.50;5.87;;;;;;;;;;5053385;28;20248;-25
2022/11/25 11:39:18;;;;;;;9.83;5.87;;;;;;;;;;5050271;28;20208;-32
2022/11/25 11:41:48;;;;;;;10.43;5.43;;;;;;;;;;5045058;28;20245;-26
2022/11/25 11:44:19;;;;;;;8.47;5.50;;;;;;;;;;5057469;28;20209;-28
2022/11/25 11:46:55;;;;;;;10.00;5.60;;;;;;;;;;5048394;28;20210;-29
2022/11/25 11:49:41;;;;;;;7.47;4.97;;;;;;;;;;5059701;28;20189;-29
2022/11/25 11:52:11;;;;;;;7.90;5.50;;;;;;;;;;5059234;28;20305;-27
2022/11/25 11:54:44;;;;;;;9.70;5.40;;;;;;;;;;5053314;28;20195;-30
2022/11/25 11:57:16;;;;;;;9.47;5.00;;;;;;;;;;5058808;28;20197;-25
2022/11/25 11:59:48;;;;;;;7.87;4.63;;;;;;;;;;5048910;28;20210;-32
2022/11/25 12:02:30;;;;;;;7.43;5.03;;;;;;;;;;5050464;28;20217;-26
2022/11/25 12:05:03;;;;;;;6.83;4.83;;;;;;;;;;5066068;28;20198;-31
2022/11/25 12:07:34;;;;;;;6.53;5.00;;;;;;;;;;5059674;28;20194;-24
2022/11/25 12:10:04;;;;;;;7.93;5.13;;;;;;;;;;5050991;28;20201;-27
2022/11/25 12:12:34;;;;;;;7.63;4.77;;;;;;;;;;5053615;28;20213;-30
2022/11/25 12:15:03;;;;;;;7.00;5.03;;;;;;;;;;5047289;28;20261;-30
2022/11/25 12:17:35;;;;;;;8.33;5.30;;;;;;;;;;5048857;28;20636;-29
2022/11/25 12:20:07;;;;;;;7.70;5.40;;;;;;;;;;5066367;28;20191;-28
2022/11/25 12:22:38;;;;;;;5.67;4.77;;;;;;;;;;5048855;28;20222;-30
2022/11/25 12:25:08;;;;;;;7.30;5.40;;;;;;;;;;5040242;28;20200;-26
2022/11/25 12:27:38;;;;;;;10.87;6.03;;;;;;;;;;5049573;28;20204;-28
2022/11/25 12:30:07;;;;;;;28.33;16.13;;;;;;;;;;5047715;28;20251;-26
2022/11/25 12:32:44;;;;;;;41.70;20.80;;;;;;;;;;5055063;28;20198;-23
2022/11/25 12:35:17;;;;;;;20.57;11.20;;;;;;;;;;5052738;28;20204;-24
2022/11/25 12:37:48;;;;;;;13.40;6.43;;;;;;;;;;5049227;28;20220;-25
2022/11/25 12:40:17;;;;;;;18.33;9.20;;;;;;;;;;5045895;28;20225;-26
2022/11/25 12:42:44;;;;;;;17.47;10.10;;;;;;;;;;5054458;28;20230;-32
2022/11/25 12:45:16;;;;;;;16.03;8.90;;;;;;;;;;5043859;28;20206;-28
2022/11/25 12:47:43;;;;;;;15.60;9.27;;;;;;;;;;5050583;28;20277;-24
2022/11/25 12:50:15;;;;;;;12.97;7.40;;;;;;;;;;5054449;28;20193;-25
2022/11/25 12:52:52;;;;;;;10.53;6.70;;;;;;;;;;5054978;28;20272;-26
2022/11/25 12:55:21;;;;;;;13.37;7.10;;;;;;;;;;5039166;28;20213;-23
2022/11/25 12:58:02;;;;;;;9.33;6.20;;;;;;;;;;5051990;28;20200;-26
2022/11/25 13:00:32;;;;;;;6.47;5.77;;;;;;;;;;5049003;28;20226;-25
2022/11/25 13:03:07;;;;;;;8.67;6.10;;;;;;;;;;5058670;28;20215;-29
2022/11/25 13:05:42;;;;;;;10.40;6.33;;;;;;;;;;5051821;28;20205;-24
2022/11/25 13:08:17;;;;;;;8.67;7.57;;;;;;;;;;5057547;28;20190;-27
2022/11/25 13:11:00;;;;;;;16.70;10.50;;;;;;;;;;5048765;28;20236;-30
2022/11/25 13:13:42;;;;;;;10.90;5.70;;;;;;;;;;5049020;28;20773;-27
2022/11/25 13:16:10;;;;;;;7.10;5.93;;;;;;;;;;5039321;28;20801;-27
2022/11/25 13:18:39;;;;;;;7.27;5.50;;;;;;;;;;5051190;28;20203;-27
2022/11/25 13:21:07;;;;;;;6.63;4.93;;;;;;;;;;5052281;28;20679;-28
2022/11/25 13:23:46;;;;;;;8.70;6.50;;;;;;;;;;5047393;28;20263;-25
2022/11/25 13:26:32;;;;;;;11.37;7.00;;;;;;;;;;5047089;28;20756;-28
2022/11/25 13:29:00;;;;;;;11.87;7.60;;;;;;;;;;5039626;28;20822;-27
2022/11/25 13:31:31;;;;;;;9.80;7.00;;;;;;;;;;5043998;28;20226;-26
2022/11/25 13:34:17;;;;;;;10.53;6.50;;;;;;;;;;5052248;28;20226;-26
2022/11/25 13:36:45;;;;;;;8.83;6.73;;;;;;;;;;5065318;28;20217;-28
2022/11/25 13:42:41;;;;;;;10.20;6.17;;;;;;;;;;5048345;28;20355;-27
2022/11/25 13:45:25;;;;;;;10.53;7.33;;;;;;;;;;5040674;28;20932;-25
2022/11/25 13:47:53;;;;;;;11.63;7.63;;;;;;;;;;5043910;28;20197;-26
2022/11/25 13:50:22;;;;;;;10.73;6.90;;;;;;;;;;5051469;28;20226;-25
2022/11/25 13:52:57;;;;;;;12.70;7.50;;;;;;;;;;5055031;28;20375;-28
2022/11/25 13:55:34;;;;;;;13.53;7.73;;;;;;;;;;5055952;28;20655;-30
2022/11/25 13:58:06;;;;;;;10.27;7.60;;;;;;;;;;5040254;28;20773;-23
2022/11/25 14:00:48;;;;;;;12.30;7.63;;;;;;;;;;5042927;28;20228;-25
2022/11/25 14:03:35;;;;;;;8.67;6.97;;;;;;;;;;5051707;28;20734;-25
2022/11/25 14:06:06;;;;;;;10.43;8.33;;;;;;;;;;5063833;28;20232;-30
2022/11/25 14:08:38;;;;;;;9.40;6.90;;;;;;;;;;5060054;28;20196;-27
2022/11/25 14:11:23;;;;;;;13.03;6.90;;;;;;;;;;5056026;28;20225;-28
2022/11/25 14:13:57;;;;;;;11.17;6.43;;;;;;;;;;5061369;28;20190;-27
2022/11/25 14:16:36;;;;;;;11.63;7.13;;;;;;;;;;5050344;28;20200;-26
2022/11/25 14:19:12;;;;;;;11.00;7.03;;;;;;;;;;5051078;28;20198;-28
2022/11/25 14:21:48;;;;;;;9.93;7.40;;;;;;;;;;5051743;28;20699;-28
2022/11/25 14:24:29;;;;;;;10.97;7.70;;;;;;;;;;5054771;28;20197;-27
2022/11/25 14:26:58;;;;;;;11.63;7.90;;;;;;;;;;5059741;28;20360;-26
2022/11/25 14:29:28;;;;;;;10.60;7.77;;;;;;;;;;5054982;28;20229;-29
2022/11/25 14:31:58;;;;;;;12.10;8.30;;;;;;;;;;5056907;28;20217;-26
2022/11/25 14:34:28;;;;;;;16.27;10.83;;;;;;;;;;5064496;28;20194;-27
2022/11/25 14:36:57;;;;;;;18.33;10.90;;;;;;;;;;5052052;28;20433;-31
2022/11/25 14:39:26;;;;;;;17.77;10.87;;;;;;;;;;5053281;28;20208;-29
2022/11/25 14:41:58;;;;;;;16.90;11.03;;;;;;;;;;5059332;28;20220;-26
2022/11/25 14:44:28;;;;;;;13.33;10.17;;;;;;;;;;5060483;28;20308;-30
2022/11/25 14:46:56;;;;;;;17.67;10.70;;;;;;;;;;5054900;28;20205;-27
2022/11/25 14:49:25;;;;;;;14.03;8.67;;;;;;;;;;5064262;28;20204;-29
2022/11/25 14:51:53;;;;;;;15.77;8.73;;;;;;;;;;5066903;28;20219;-26
2022/11/25 14:54:20;;;;;;;13.67;8.13;;;;;;;;;;5047711;28;20213;-29
2022/11/25 14:56:49;;;;;;;13.20;7.97;;;;;;;;;;5047034;28;20233;-26
2022/11/25 14:59:17;;;;;;;11.70;7.60;;;;;;;;;;5051672;28;20259;-28
2022/11/25 15:01:54;;;;;;;14.33;8.80;;;;;;;;;;5051614;28;20745;-28
2022/11/25 15:04:22;;;;;;;12.67;7.43;;;;;;;;;;5050467;28;20705;-29
2022/11/25 15:06:52;;;;;;;11.87;5.97;;;;;;;;;;5056061;28;20202;-28
2022/11/25 15:09:21;;;;;;;8.10;5.37;;;;;;;;;;5056249;28;20220;-25
2022/11/25 15:11:51;;;;;;;8.07;5.80;;;;;;;;;;5050878;28;20218;-27
2022/11/25 15:14:24;;;;;;;9.67;5.73;;;;;;;;;;5040189;28;20203;-30